sensor_id;sensor_type;location;lat;lon;timestamp;temperature;humidity
35425;DHT22;21537;48.226;16.400;2022-11-12T00:00:03;8.30;99.90
35425;DHT22;21537;48.226;16.400;2022-11-12T00:02:48;8.30;99.90
35425;DHT22;21537;48.226;16.400;2022-11-12T00:05:33;8.30;99.90
35425;DHT22;21537;48.226;16.400;2022-11-12T00:08:18;8.20;99.90
35425;DHT22;21537;48.226;16.400;2022-11-12T00:11:03;8.20;99.90
35425;DHT22;21537;48.226;16.400;2022-11-12T00:13:48;8.20;99.90
35425;DHT22;21537;48.226;16.400;2022-11-12T00:16:36;8.10;99.90
35425;DHT22;21537;48.226;16.400;2022-11-12T00:19:21;8.10;99.90
35425;DHT22;21537;48.226;16.400;2022-11-12T00:22:05;8.00;99.90
35425;DHT22;21537;48.226;16.400;2022-11-12T00:24:50;8.00;99.90
35425;DHT22;21537;48.226;16.400;2022-11-12T00:27:38;8.00;99.90
35425;DHT22;21537;48.226;16.400;2022-11-12T00:30:22;7.90;99.90
35425;DHT22;21537;48.226;16.400;2022-11-12T00:33:07;7.90;99.90
35425;DHT22;21537;48.226;16.400;2022-11-12T00:35:52;7.80;99.90
35425;DHT22;21537;48.226;16.400;2022-11-12T00:38:37;7.80;99.90
35425;DHT22;21537;48.226;16.400;2022-11-12T00:41:21;7.80;99.90
35425;DHT22;21537;48.226;16.400;2022-11-12T00:44:14;7.70;99.90
35425;DHT22;21537;48.226;16.400;2022-11-12T00:46:59;7.70;99.90
35425;DHT22;21537;48.226;16.400;2022-11-12T00:49:48;7.70;99.90
35425;DHT22;21537;48.226;16.400;2022-11-12T00:52:35;7.70;99.90
35425;DHT22;21537;48.226;16.400;2022-11-12T00:55:20;7.60;99.90
35425;DHT22;21537;48.226;16.400;2022-11-12T00:58:04;7.60;99.90
35425;DHT22;21537;48.226;16.400;2022-11-12T01:00:49;7.50;99.90
35425;DHT22;21537;48.226;16.400;2022-11-12T01:03:35;7.50;99.90
35425;DHT22;21537;48.226;16.400;2022-11-12T01:06:21;7.50;99.90
35425;DHT22;21537;48.226;16.400;2022-11-12T01:09:07;7.40;99.90
35425;DHT22;21537;48.226;16.400;2022-11-12T01:11:52;7.40;99.90
35425;DHT22;21537;48.226;16.400;2022-11-12T01:14:37;7.40;99.90
35425;DHT22;21537;48.226;16.400;2022-11-12T01:17:21;7.40;99.90
35425;DHT22;21537;48.226;16.400;2022-11-12T01:20:06;7.30;99.90
35425;DHT22;21537;48.226;16.400;2022-11-12T01:22:51;7.30;99.90
35425;DHT22;21537;48.226;16.400;2022-11-12T01:25:38;7.30;99.90
35425;DHT22;21537;48.226;16.400;2022-11-12T01:28:22;7.30;99.90
35425;DHT22;21537;48.226;16.400;2022-11-12T01:31:19;7.30;99.90
35425;DHT22;21537;48.226;16.400;2022-11-12T01:34:07;7.30;99.90
35425;DHT22;21537;48.226;16.400;2022-11-12T01:36:51;7.40;99.90
35425;DHT22;21537;48.226;16.400;2022-11-12T01:39:36;7.30;99.90
35425;DHT22;21537;48.226;16.400;2022-11-12T01:42:22;7.40;99.90
35425;DHT22;21537;48.226;16.400;2022-11-12T01:45:13;7.40;99.90
35425;DHT22;21537;48.226;16.400;2022-11-12T01:47:59;7.40;99.90
35425;DHT22;21537;48.226;16.400;2022-11-12T01:50:43;7.30;99.90
35425;DHT22;21537;48.226;16.400;2022-11-12T01:53:31;7.40;99.90
35425;DHT22;21537;48.226;16.400;2022-11-12T01:56:18;7.30;99.90
35425;DHT22;21537;48.226;16.400;2022-11-12T01:59:07;7.30;99.90
35425;DHT22;21537;48.226;16.400;2022-11-12T02:01:53;7.30;99.90
35425;DHT22;21537;48.226;16.400;2022-11-12T02:04:39;7.30;99.90
35425;DHT22;21537;48.226;16.400;2022-11-12T02:07:25;7.20;99.90
35425;DHT22;21537;48.226;16.400;2022-11-12T02:10:10;7.20;99.90
35425;DHT22;21537;48.226;16.400;2022-11-12T02:12:55;7.20;99.90
35425;DHT22;21537;48.226;16.400;2022-11-12T02:15:59;7.20;99.90
35425;DHT22;21537;48.226;16.400;2022-11-12T02:18:43;7.20;99.90
35425;DHT22;21537;48.226;16.400;2022-11-12T02:21:28;7.20;99.90
35425;DHT22;21537;48.226;16.400;2022-11-12T02:26:57;7.20;99.90
35425;DHT22;21537;48.226;16.400;2022-11-12T02:29:42;7.20;99.90
35425;DHT22;21537;48.226;16.400;2022-11-12T02:32:29;7.10;99.90
35425;DHT22;21537;48.226;16.400;2022-11-12T02:35:14;7.20;99.90
35425;DHT22;21537;48.226;16.400;2022-11-12T02:37:59;7.20;99.90
35425;DHT22;21537;48.226;16.400;2022-11-12T02:40:43;7.20;99.90
35425;DHT22;21537;48.226;16.400;2022-11-12T02:43:27;7.10;99.90
35425;DHT22;21537;48.226;16.400;2022-11-12T02:46:12;7.20;99.90
35425;DHT22;21537;48.226;16.400;2022-11-12T02:48:56;7.20;99.90
35425;DHT22;21537;48.226;16.400;2022-11-12T02:51:40;7.20;99.90
35425;DHT22;21537;48.226;16.400;2022-11-12T02:54:25;7.30;99.90
35425;DHT22;21537;48.226;16.400;2022-11-12T02:57:09;7.40;99.90
35425;DHT22;21537;48.226;16.400;2022-11-12T02:59:54;7.30;99.90
35425;DHT22;21537;48.226;16.400;2022-11-12T03:02:38;7.40;99.90
35425;DHT22;21537;48.226;16.400;2022-11-12T03:05:26;7.50;99.90
35425;DHT22;21537;48.226;16.400;2022-11-12T03:08:11;7.50;99.90
35425;DHT22;21537;48.226;16.400;2022-11-12T03:10:55;7.60;99.90
35425;DHT22;21537;48.226;16.400;2022-11-12T03:13:40;7.60;99.90
35425;DHT22;21537;48.226;16.400;2022-11-12T03:16:24;7.70;99.90
35425;DHT22;21537;48.226;16.400;2022-11-12T03:19:09;7.70;99.90
35425;DHT22;21537;48.226;16.400;2022-11-12T03:21:54;7.70;99.90
35425;DHT22;21537;48.226;16.400;2022-11-12T03:24:38;7.70;99.90
35425;DHT22;21537;48.226;16.400;2022-11-12T03:27:23;7.80;99.90
35425;DHT22;21537;48.226;16.400;2022-11-12T03:30:07;7.80;99.90
35425;DHT22;21537;48.226;16.400;2022-11-12T03:32:51;7.80;99.90
35425;DHT22;21537;48.226;16.400;2022-11-12T03:35:37;7.70;99.90
35425;DHT22;21537;48.226;16.400;2022-11-12T03:38:22;7.70;99.90
35425;DHT22;21537;48.226;16.400;2022-11-12T03:41:06;7.70;99.90
35425;DHT22;21537;48.226;16.400;2022-11-12T03:43:51;7.60;99.90
35425;DHT22;21537;48.226;16.400;2022-11-12T03:46:35;7.60;99.90
35425;DHT22;21537;48.226;16.400;2022-11-12T03:49:19;7.50;99.90
35425;DHT22;21537;48.226;16.400;2022-11-12T03:52:03;7.50;99.90
35425;DHT22;21537;48.226;16.400;2022-11-12T03:54:48;7.40;99.90
35425;DHT22;21537;48.226;16.400;2022-11-12T03:57:32;7.30;99.90
35425;DHT22;21537;48.226;16.400;2022-11-12T04:00:18;7.30;99.90
35425;DHT22;21537;48.226;16.400;2022-11-12T04:03:03;7.20;99.90
35425;DHT22;21537;48.226;16.400;2022-11-12T04:05:47;7.20;99.90
35425;DHT22;21537;48.226;16.400;2022-11-12T04:08:50;7.10;99.90
35425;DHT22;21537;48.226;16.400;2022-11-12T04:11:35;7.10;99.90
35425;DHT22;21537;48.226;16.400;2022-11-12T04:14:19;7.00;99.90
35425;DHT22;21537;48.226;16.400;2022-11-12T04:17:04;7.00;99.90
35425;DHT22;21537;48.226;16.400;2022-11-12T04:20:08;6.90;99.90
35425;DHT22;21537;48.226;16.400;2022-11-12T04:23:11;6.90;99.90
35425;DHT22;21537;48.226;16.400;2022-11-12T04:25:55;6.80;99.90
35425;DHT22;21537;48.226;16.400;2022-11-12T04:28:59;6.80;99.90
35425;DHT22;21537;48.226;16.400;2022-11-12T04:32:02;6.80;99.90
35425;DHT22;21537;48.226;16.400;2022-11-12T04:34:46;6.70;99.90
35425;DHT22;21537;48.226;16.400;2022-11-12T04:37:32;6.70;99.90
35425;DHT22;21537;48.226;16.400;2022-11-12T04:40:27;6.70;99.90
35425;DHT22;21537;48.226;16.400;2022-11-12T04:43:30;6.70;99.90
35425;DHT22;21537;48.226;16.400;2022-11-12T04:46:33;6.70;99.90
35425;DHT22;21537;48.226;16.400;2022-11-12T04:49:18;6.70;99.90
35425;DHT22;21537;48.226;16.400;2022-11-12T04:52:02;6.70;99.90
35425;DHT22;21537;48.226;16.400;2022-11-12T04:54:50;6.70;99.90
35425;DHT22;21537;48.226;16.400;2022-11-12T04:57:35;6.60;99.90
35425;DHT22;21537;48.226;16.400;2022-11-12T05:00:20;6.60;99.90
35425;DHT22;21537;48.226;16.400;2022-11-12T05:03:04;6.60;99.90
35425;DHT22;21537;48.226;16.400;2022-11-12T05:05:49;6.60;99.90
35425;DHT22;21537;48.226;16.400;2022-11-12T05:08:34;6.60;99.90
35425;DHT22;21537;48.226;16.400;2022-11-12T05:11:18;6.60;99.90
35425;DHT22;21537;48.226;16.400;2022-11-12T05:14:04;6.60;99.90
35425;DHT22;21537;48.226;16.400;2022-11-12T05:16:50;6.50;99.90
35425;DHT22;21537;48.226;16.400;2022-11-12T05:19:34;6.50;99.90
35425;DHT22;21537;48.226;16.400;2022-11-12T05:22:19;6.50;99.90
35425;DHT22;21537;48.226;16.400;2022-11-12T05:25:04;6.40;99.90
35425;DHT22;21537;48.226;16.400;2022-11-12T05:27:49;6.30;99.90
35425;DHT22;21537;48.226;16.400;2022-11-12T05:30:33;6.30;99.90
35425;DHT22;21537;48.226;16.400;2022-11-12T05:33:17;6.20;99.90
35425;DHT22;21537;48.226;16.400;2022-11-12T05:36:01;6.20;99.90
35425;DHT22;21537;48.226;16.400;2022-11-12T05:38:46;6.20;99.90
35425;DHT22;21537;48.226;16.400;2022-11-12T05:41:30;6.10;99.90
35425;DHT22;21537;48.226;16.400;2022-11-12T05:44:14;6.10;99.90
35425;DHT22;21537;48.226;16.400;2022-11-12T05:46:59;6.10;99.90
35425;DHT22;21537;48.226;16.400;2022-11-12T05:49:43;6.10;99.90
35425;DHT22;21537;48.226;16.400;2022-11-12T05:52:28;6.10;99.90
35425;DHT22;21537;48.226;16.400;2022-11-12T05:55:12;6.00;99.90
35425;DHT22;21537;48.226;16.400;2022-11-12T05:58:03;6.00;99.90
35425;DHT22;21537;48.226;16.400;2022-11-12T06:00:48;6.00;99.90
35425;DHT22;21537;48.226;16.400;2022-11-12T06:03:32;6.00;99.90
35425;DHT22;21537;48.226;16.400;2022-11-12T06:06:16;6.00;99.90
35425;DHT22;21537;48.226;16.400;2022-11-12T06:09:03;6.00;99.90
35425;DHT22;21537;48.226;16.400;2022-11-12T06:11:47;6.00;99.90
35425;DHT22;21537;48.226;16.400;2022-11-12T06:14:31;6.00;99.90
35425;DHT22;21537;48.226;16.400;2022-11-12T06:17:15;6.00;99.90
35425;DHT22;21537;48.226;16.400;2022-11-12T06:20:00;6.00;99.90
35425;DHT22;21537;48.226;16.400;2022-11-12T06:22:44;6.10;99.90
35425;DHT22;21537;48.226;16.400;2022-11-12T06:25:29;6.10;99.90
35425;DHT22;21537;48.226;16.400;2022-11-12T06:28:13;6.10;99.90
35425;DHT22;21537;48.226;16.400;2022-11-12T06:31:00;6.10;99.90
35425;DHT22;21537;48.226;16.400;2022-11-12T06:33:46;6.20;99.90
35425;DHT22;21537;48.226;16.400;2022-11-12T06:36:30;6.30;99.90
35425;DHT22;21537;48.226;16.400;2022-11-12T06:39:15;6.40;99.90
35425;DHT22;21537;48.226;16.400;2022-11-12T06:41:59;6.40;99.90
35425;DHT22;21537;48.226;16.400;2022-11-12T06:44:45;6.40;99.90
35425;DHT22;21537;48.226;16.400;2022-11-12T06:47:29;6.40;99.90
35425;DHT22;21537;48.226;16.400;2022-11-12T06:50:14;6.50;99.90
35425;DHT22;21537;48.226;16.400;2022-11-12T06:52:59;6.50;99.90
35425;DHT22;21537;48.226;16.400;2022-11-12T06:55:43;6.50;99.90
35425;DHT22;21537;48.226;16.400;2022-11-12T06:58:28;6.60;99.90
35425;DHT22;21537;48.226;16.400;2022-11-12T07:01:15;6.70;99.90
35425;DHT22;21537;48.226;16.400;2022-11-12T07:03:59;6.70;99.90
35425;DHT22;21537;48.226;16.400;2022-11-12T07:06:44;6.80;99.90
35425;DHT22;21537;48.226;16.400;2022-11-12T07:09:29;6.90;99.90
35425;DHT22;21537;48.226;16.400;2022-11-12T07:12:13;6.90;99.90
35425;DHT22;21537;48.226;16.400;2022-11-12T07:14:57;7.00;99.90
35425;DHT22;21537;48.226;16.400;2022-11-12T07:17:44;7.10;99.90
35425;DHT22;21537;48.226;16.400;2022-11-12T07:20:28;7.10;99.90
35425;DHT22;21537;48.226;16.400;2022-11-12T07:23:13;7.20;99.90
35425;DHT22;21537;48.226;16.400;2022-11-12T07:28:42;7.30;99.90
35425;DHT22;21537;48.226;16.400;2022-11-12T07:31:26;7.40;99.90
35425;DHT22;21537;48.226;16.400;2022-11-12T07:34:11;7.50;99.90
35425;DHT22;21537;48.226;16.400;2022-11-12T07:36:56;7.50;99.90
35425;DHT22;21537;48.226;16.400;2022-11-12T07:39:41;7.70;99.90
35425;DHT22;21537;48.226;16.400;2022-11-12T07:42:25;7.70;99.90
35425;DHT22;21537;48.226;16.400;2022-11-12T07:45:09;7.70;99.90
35425;DHT22;21537;48.226;16.400;2022-11-12T07:47:57;7.80;99.90
35425;DHT22;21537;48.226;16.400;2022-11-12T07:50:42;7.90;99.90
35425;DHT22;21537;48.226;16.400;2022-11-12T07:53:29;7.90;99.90
35425;DHT22;21537;48.226;16.400;2022-11-12T07:56:18;8.10;99.90
35425;DHT22;21537;48.226;16.400;2022-11-12T07:59:03;8.20;99.90
35425;DHT22;21537;48.226;16.400;2022-11-12T08:04:38;8.30;99.90
35425;DHT22;21537;48.226;16.400;2022-11-12T08:07:26;8.40;99.90
35425;DHT22;21537;48.226;16.400;2022-11-12T08:10:10;8.40;99.90
35425;DHT22;21537;48.226;16.400;2022-11-12T08:13:01;8.60;99.90
35425;DHT22;21537;48.226;16.400;2022-11-12T08:15:51;8.90;99.90
35425;DHT22;21537;48.226;16.400;2022-11-12T08:19:08;9.30;99.90
35425;DHT22;21537;48.226;16.400;2022-11-12T08:22:23;10.00;99.90
35425;DHT22;21537;48.226;16.400;2022-11-12T08:25:23;10.90;99.90
35425;DHT22;21537;48.226;16.400;2022-11-12T08:28:23;12.20;99.90
35425;DHT22;21537;48.226;16.400;2022-11-12T08:31:54;12.80;99.90
35425;DHT22;21537;48.226;16.400;2022-11-12T08:44:50;15.20;99.90
35425;DHT22;21537;48.226;16.400;2022-11-12T08:48:46;16.00;99.90
35425;DHT22;21537;48.226;16.400;2022-11-12T09:01:08;18.10;99.90
35425;DHT22;21537;48.226;16.400;2022-11-12T09:04:07;18.10;99.10
35425;DHT22;21537;48.226;16.400;2022-11-12T09:07:30;18.70;98.20
35425;DHT22;21537;48.226;16.400;2022-11-12T09:18:12;21.10;93.50
35425;DHT22;21537;48.226;16.400;2022-11-12T09:21:15;21.60;91.70
35425;DHT22;21537;48.226;16.400;2022-11-12T09:24:25;21.50;91.20
35425;DHT22;21537;48.226;16.400;2022-11-12T09:27:39;21.30;91.30
35425;DHT22;21537;48.226;16.400;2022-11-12T09:30:24;21.40;90.70
35425;DHT22;21537;48.226;16.400;2022-11-12T09:33:09;21.40;90.40
35425;DHT22;21537;48.226;16.400;2022-11-12T09:36:00;21.80;90.00
35425;DHT22;21537;48.226;16.400;2022-11-12T09:38:45;22.40;88.50
35425;DHT22;21537;48.226;16.400;2022-11-12T09:41:37;23.00;87.10
35425;DHT22;21537;48.226;16.400;2022-11-12T09:44:23;23.30;84.80
35425;DHT22;21537;48.226;16.400;2022-11-12T09:53:07;23.20;83.40
35425;DHT22;21537;48.226;16.400;2022-11-12T09:55:54;23.30;81.60
35425;DHT22;21537;48.226;16.400;2022-11-12T09:58:40;23.60;81.00
35425;DHT22;21537;48.226;16.400;2022-11-12T10:26:46;26.90;68.60
35425;DHT22;21537;48.226;16.400;2022-11-12T10:33:52;27.40;66.80
35425;DHT22;21537;48.226;16.400;2022-11-12T10:44:55;27.90;64.70
35425;DHT22;21537;48.226;16.400;2022-11-12T10:47:57;27.20;64.10
35425;DHT22;21537;48.226;16.400;2022-11-12T11:07:23;27.90;62.40
35425;DHT22;21537;48.226;16.400;2022-11-12T11:10:49;28.10;61.80
35425;DHT22;21537;48.226;16.400;2022-11-12T12:02:16;19.90;71.60
35425;DHT22;21537;48.226;16.400;2022-11-12T12:17:06;17.00;82.40
35425;DHT22;21537;48.226;16.400;2022-11-12T12:20:39;16.70;84.20
35425;DHT22;21537;48.226;16.400;2022-11-12T12:23:39;16.40;85.80
35425;DHT22;21537;48.226;16.400;2022-11-12T12:35:35;15.60;91.20
35425;DHT22;21537;48.226;16.400;2022-11-12T12:38:50;15.50;92.70
35425;DHT22;21537;48.226;16.400;2022-11-12T12:41:56;15.20;94.20
35425;DHT22;21537;48.226;16.400;2022-11-12T12:44:46;15.10;94.90
35425;DHT22;21537;48.226;16.400;2022-11-12T12:47:51;15.00;95.70
35425;DHT22;21537;48.226;16.400;2022-11-12T12:50:41;14.80;96.60
35425;DHT22;21537;48.226;16.400;2022-11-12T12:59:20;14.60;98.70
35425;DHT22;21537;48.226;16.400;2022-11-12T13:02:19;14.50;99.30
35425;DHT22;21537;48.226;16.400;2022-11-12T13:05:05;14.50;99.40
35425;DHT22;21537;48.226;16.400;2022-11-12T13:07:50;14.50;99.30
35425;DHT22;21537;48.226;16.400;2022-11-12T13:13:28;14.50;99.10
35425;DHT22;21537;48.226;16.400;2022-11-12T13:20:16;14.40;99.20
35425;DHT22;21537;48.226;16.400;2022-11-12T13:23:03;14.40;99.20
35425;DHT22;21537;48.226;16.400;2022-11-12T13:25:48;14.40;99.10
35425;DHT22;21537;48.226;16.400;2022-11-12T13:28:33;14.40;99.30
35425;DHT22;21537;48.226;16.400;2022-11-12T13:31:28;14.30;99.70
35425;DHT22;21537;48.226;16.400;2022-11-12T13:34:26;14.30;98.90
35425;DHT22;21537;48.226;16.400;2022-11-12T13:37:19;14.30;98.60
35425;DHT22;21537;48.226;16.400;2022-11-12T13:40:10;14.20;99.40
35425;DHT22;21537;48.226;16.400;2022-11-12T13:43:02;14.20;99.40
35425;DHT22;21537;48.226;16.400;2022-11-12T13:48:56;14.20;99.80
35425;DHT22;21537;48.226;16.400;2022-11-12T13:51:48;14.20;99.90
35425;DHT22;21537;48.226;16.400;2022-11-12T13:54:36;14.20;99.90
35425;DHT22;21537;48.226;16.400;2022-11-12T13:57:24;14.20;99.90
35425;DHT22;21537;48.226;16.400;2022-11-12T14:03:05;14.20;99.90
35425;DHT22;21537;48.226;16.400;2022-11-12T14:05:50;14.20;99.90
35425;DHT22;21537;48.226;16.400;2022-11-12T14:08:43;14.10;99.90
35425;DHT22;21537;48.226;16.400;2022-11-12T14:11:52;14.10;99.90
35425;DHT22;21537;48.226;16.400;2022-11-12T14:18:23;14.10;99.90
35425;DHT22;21537;48.226;16.400;2022-11-12T14:21:15;14.00;99.90
35425;DHT22;21537;48.226;16.400;2022-11-12T14:24:01;13.90;99.90
35425;DHT22;21537;48.226;16.400;2022-11-12T14:26:46;13.90;99.90
35425;DHT22;21537;48.226;16.400;2022-11-12T14:29:30;13.80;99.90
35425;DHT22;21537;48.226;16.400;2022-11-12T14:32:15;13.80;99.90
35425;DHT22;21537;48.226;16.400;2022-11-12T14:34:59;13.70;99.90
35425;DHT22;21537;48.226;16.400;2022-11-12T14:38:04;13.60;99.90
35425;DHT22;21537;48.226;16.400;2022-11-12T14:40:53;13.50;99.90
35425;DHT22;21537;48.226;16.400;2022-11-12T14:43:48;13.50;99.90
35425;DHT22;21537;48.226;16.400;2022-11-12T14:52:30;13.20;99.90
35425;DHT22;21537;48.226;16.400;2022-11-12T14:55:19;13.20;99.90
35425;DHT22;21537;48.226;16.400;2022-11-12T14:58:04;13.10;99.90
35425;DHT22;21537;48.226;16.400;2022-11-12T15:00:51;13.00;99.90
35425;DHT22;21537;48.226;16.400;2022-11-12T15:03:36;12.90;99.90
35425;DHT22;21537;48.226;16.400;2022-11-12T15:06:31;12.80;99.90
35425;DHT22;21537;48.226;16.400;2022-11-12T15:09:17;12.80;99.90
35425;DHT22;21537;48.226;16.400;2022-11-12T15:12:10;12.70;99.90
35425;DHT22;21537;48.226;16.400;2022-11-12T15:15:23;12.60;99.90
35425;DHT22;21537;48.226;16.400;2022-11-12T15:18:19;12.50;99.90
35425;DHT22;21537;48.226;16.400;2022-11-12T15:24:04;12.40;99.90
35425;DHT22;21537;48.226;16.400;2022-11-12T15:26:49;12.30;99.90
35425;DHT22;21537;48.226;16.400;2022-11-12T15:29:34;12.30;99.90
35425;DHT22;21537;48.226;16.400;2022-11-12T15:35:04;12.10;99.90
35425;DHT22;21537;48.226;16.400;2022-11-12T15:37:48;12.00;99.90
35425;DHT22;21537;48.226;16.400;2022-11-12T15:40:40;12.00;99.90
35425;DHT22;21537;48.226;16.400;2022-11-12T15:43:36;11.90;99.90
35425;DHT22;21537;48.226;16.400;2022-11-12T15:46:25;11.80;99.90
35425;DHT22;21537;48.226;16.400;2022-11-12T15:49:11;11.80;99.90
35425;DHT22;21537;48.226;16.400;2022-11-12T15:51:56;11.70;99.90
35425;DHT22;21537;48.226;16.400;2022-11-12T15:54:40;11.60;99.90
35425;DHT22;21537;48.226;16.400;2022-11-12T15:57:28;11.60;99.90
35425;DHT22;21537;48.226;16.400;2022-11-12T16:03:17;11.50;99.90
35425;DHT22;21537;48.226;16.400;2022-11-12T16:06:02;11.40;99.90
35425;DHT22;21537;48.226;16.400;2022-11-12T16:08:47;11.40;99.90
35425;DHT22;21537;48.226;16.400;2022-11-12T16:11:32;11.30;99.90
35425;DHT22;21537;48.226;16.400;2022-11-12T16:14:19;11.30;99.90
35425;DHT22;21537;48.226;16.400;2022-11-12T16:17:04;11.30;99.90
35425;DHT22;21537;48.226;16.400;2022-11-12T16:19:49;11.20;99.90
35425;DHT22;21537;48.226;16.400;2022-11-12T16:22:33;11.10;99.90
35425;DHT22;21537;48.226;16.400;2022-11-12T16:25:18;11.10;99.90
35425;DHT22;21537;48.226;16.400;2022-11-12T16:28:03;11.00;99.90
35425;DHT22;21537;48.226;16.400;2022-11-12T16:30:52;11.00;99.90
35425;DHT22;21537;48.226;16.400;2022-11-12T16:33:37;10.90;99.90
35425;DHT22;21537;48.226;16.400;2022-11-12T16:36:21;10.90;99.90
35425;DHT22;21537;48.226;16.400;2022-11-12T16:39:08;10.80;99.90
35425;DHT22;21537;48.226;16.400;2022-11-12T16:41:53;10.80;99.90
35425;DHT22;21537;48.226;16.400;2022-11-12T16:44:37;10.70;99.90
35425;DHT22;21537;48.226;16.400;2022-11-12T16:47:22;10.60;99.90
35425;DHT22;21537;48.226;16.400;2022-11-12T16:50:09;10.70;99.90
35425;DHT22;21537;48.226;16.400;2022-11-12T16:52:54;10.60;99.90
35425;DHT22;21537;48.226;16.400;2022-11-12T16:55:39;10.60;99.90
35425;DHT22;21537;48.226;16.400;2022-11-12T16:58:24;10.50;99.90
35425;DHT22;21537;48.226;16.400;2022-11-12T17:01:38;10.40;99.90
35425;DHT22;21537;48.226;16.400;2022-11-12T17:04:23;10.40;99.90
35425;DHT22;21537;48.226;16.400;2022-11-12T17:07:08;10.30;99.90
35425;DHT22;21537;48.226;16.400;2022-11-12T17:09:52;10.30;99.90
35425;DHT22;21537;48.226;16.400;2022-11-12T17:12:37;10.40;99.90
35425;DHT22;21537;48.226;16.400;2022-11-12T17:15:22;10.30;99.90
35425;DHT22;21537;48.226;16.400;2022-11-12T17:18:07;10.20;99.90
35425;DHT22;21537;48.226;16.400;2022-11-12T17:20:52;10.20;99.90
35425;DHT22;21537;48.226;16.400;2022-11-12T17:23:37;10.20;99.90
35425;DHT22;21537;48.226;16.400;2022-11-12T17:26:21;10.10;99.90
35425;DHT22;21537;48.226;16.400;2022-11-12T17:29:06;10.10;99.90
35425;DHT22;21537;48.226;16.400;2022-11-12T17:31:51;10.10;99.90
35425;DHT22;21537;48.226;16.400;2022-11-12T17:34:35;10.00;99.90
35425;DHT22;21537;48.226;16.400;2022-11-12T17:37:20;10.00;99.90
35425;DHT22;21537;48.226;16.400;2022-11-12T17:40:05;10.00;99.90
35425;DHT22;21537;48.226;16.400;2022-11-12T17:42:49;9.90;99.90
35425;DHT22;21537;48.226;16.400;2022-11-12T17:45:34;9.90;99.90
35425;DHT22;21537;48.226;16.400;2022-11-12T17:48:19;9.90;99.90
35425;DHT22;21537;48.226;16.400;2022-11-12T17:51:09;9.80;99.90
35425;DHT22;21537;48.226;16.400;2022-11-12T17:53:55;9.80;99.90
35425;DHT22;21537;48.226;16.400;2022-11-12T17:56:39;9.70;99.90
35425;DHT22;21537;48.226;16.400;2022-11-12T17:59:24;9.70;99.90
35425;DHT22;21537;48.226;16.400;2022-11-12T18:02:10;9.70;99.90
35425;DHT22;21537;48.226;16.400;2022-11-12T18:04:55;9.70;99.90
35425;DHT22;21537;48.226;16.400;2022-11-12T18:07:40;9.70;99.90
35425;DHT22;21537;48.226;16.400;2022-11-12T18:10:24;9.60;99.90
35425;DHT22;21537;48.226;16.400;2022-11-12T18:13:09;9.60;99.90
35425;DHT22;21537;48.226;16.400;2022-11-12T18:15:54;9.50;99.90
35425;DHT22;21537;48.226;16.400;2022-11-12T18:18:38;9.40;99.90
35425;DHT22;21537;48.226;16.400;2022-11-12T18:21:24;9.40;99.90
35425;DHT22;21537;48.226;16.400;2022-11-12T18:24:13;9.30;99.90
35425;DHT22;21537;48.226;16.400;2022-11-12T18:26:58;9.30;99.90
35425;DHT22;21537;48.226;16.400;2022-11-12T18:29:42;9.20;99.90
35425;DHT22;21537;48.226;16.400;2022-11-12T18:32:29;9.20;99.90
35425;DHT22;21537;48.226;16.400;2022-11-12T18:35:15;9.20;99.90
35425;DHT22;21537;48.226;16.400;2022-11-12T18:38:00;9.10;99.90
35425;DHT22;21537;48.226;16.400;2022-11-12T18:40:45;9.20;99.90
35425;DHT22;21537;48.226;16.400;2022-11-12T18:43:29;9.20;99.90
35425;DHT22;21537;48.226;16.400;2022-11-12T18:46:14;9.20;99.90
35425;DHT22;21537;48.226;16.400;2022-11-12T18:48:58;9.10;99.90
35425;DHT22;21537;48.226;16.400;2022-11-12T18:51:42;9.00;99.90
35425;DHT22;21537;48.226;16.400;2022-11-12T18:54:27;9.00;99.90
35425;DHT22;21537;48.226;16.400;2022-11-12T18:57:12;8.90;99.90
35425;DHT22;21537;48.226;16.400;2022-11-12T18:59:56;8.90;99.90
35425;DHT22;21537;48.226;16.400;2022-11-12T19:02:41;8.90;99.90
35425;DHT22;21537;48.226;16.400;2022-11-12T19:05:26;8.80;99.90
35425;DHT22;21537;48.226;16.400;2022-11-12T19:08:10;8.80;99.90
35425;DHT22;21537;48.226;16.400;2022-11-12T19:10:58;8.80;99.90
35425;DHT22;21537;48.226;16.400;2022-11-12T19:13:43;8.80;99.90
35425;DHT22;21537;48.226;16.400;2022-11-12T19:16:28;8.90;99.90
35425;DHT22;21537;48.226;16.400;2022-11-12T19:19:12;8.90;99.90
35425;DHT22;21537;48.226;16.400;2022-11-12T19:21:58;8.90;99.90
35425;DHT22;21537;48.226;16.400;2022-11-12T19:24:43;8.90;99.90
35425;DHT22;21537;48.226;16.400;2022-11-12T19:27:27;8.80;99.90
35425;DHT22;21537;48.226;16.400;2022-11-12T19:30:12;8.80;99.90
35425;DHT22;21537;48.226;16.400;2022-11-12T19:32:56;8.80;99.90
35425;DHT22;21537;48.226;16.400;2022-11-12T19:35:41;8.70;99.90
35425;DHT22;21537;48.226;16.400;2022-11-12T19:38:26;8.70;99.90
35425;DHT22;21537;48.226;16.400;2022-11-12T19:41:15;8.60;99.90
35425;DHT22;21537;48.226;16.400;2022-11-12T19:44:02;8.60;99.90
35425;DHT22;21537;48.226;16.400;2022-11-12T19:47:04;8.60;99.90
35425;DHT22;21537;48.226;16.400;2022-11-12T19:53:04;8.50;99.90
35425;DHT22;21537;48.226;16.400;2022-11-12T19:58:32;8.50;99.90
35425;DHT22;21537;48.226;16.400;2022-11-12T20:01:21;8.50;99.90
35425;DHT22;21537;48.226;16.400;2022-11-12T20:04:13;8.50;99.90
35425;DHT22;21537;48.226;16.400;2022-11-12T20:07:04;8.40;99.90
35425;DHT22;21537;48.226;16.400;2022-11-12T20:09:48;8.30;99.90
35425;DHT22;21537;48.226;16.400;2022-11-12T20:12:33;8.30;99.90
35425;DHT22;21537;48.226;16.400;2022-11-12T20:15:18;8.20;99.90
35425;DHT22;21537;48.226;16.400;2022-11-12T20:18:05;8.20;99.90
35425;DHT22;21537;48.226;16.400;2022-11-12T20:20:57;8.20;99.90
35425;DHT22;21537;48.226;16.400;2022-11-12T20:23:42;8.20;99.90
35425;DHT22;21537;48.226;16.400;2022-11-12T20:34:16;8.30;99.90
35425;DHT22;21537;48.226;16.400;2022-11-12T20:37:46;8.20;99.90
35425;DHT22;21537;48.226;16.400;2022-11-12T20:44:59;8.20;99.90
35425;DHT22;21537;48.226;16.400;2022-11-12T20:48:27;8.20;99.90
35425;DHT22;21537;48.226;16.400;2022-11-12T21:02:29;8.00;99.90
35425;DHT22;21537;48.226;16.400;2022-11-12T21:20:26;7.80;99.90
35425;DHT22;21537;48.226;16.400;2022-11-12T21:27:20;7.70;99.90
35425;DHT22;21537;48.226;16.400;2022-11-12T21:41:43;7.70;99.90
35425;DHT22;21537;48.226;16.400;2022-11-12T21:45:17;7.70;99.90
35425;DHT22;21537;48.226;16.400;2022-11-12T21:48:26;7.70;99.90
35425;DHT22;21537;48.226;16.400;2022-11-12T22:12:08;7.60;99.90
35425;DHT22;21537;48.226;16.400;2022-11-12T22:32:11;7.50;99.90
35425;DHT22;21537;48.226;16.400;2022-11-12T22:35:36;7.40;99.90
35425;DHT22;21537;48.226;16.400;2022-11-12T22:38:50;7.40;99.90